Time;durP1;ratioP1;P1;durP2;ratioP2;P2;SDS_P1;SDS_P2;PMS_P1;PMS_P2;Temp;Humidity;BMP_temperature;BMP_pressure;BME280_temperature;BME280_humidity;BME280_pressure;Samples;Min_cycle;Max_cycle;Signal;HPM_P1;HPM_P2
2022/07/12 00:00:23;;;;;;;;;;;17.30;99.90;;;;;;5031357;28;20202;-72
2022/07/12 00:02:51;;;;;;;;;;;17.30;99.90;;;;;;5030825;28;20226;-72
2022/07/12 00:05:21;;;;;;;;;;;17.40;99.90;;;;;;5031013;28;20198;-71
2022/07/12 00:07:49;;;;;;;;;;;17.40;99.90;;;;;;5030946;28;20199;-72
2022/07/12 00:10:17;;;;;;;;;;;17.50;99.90;;;;;;5031237;28;20195;-72
2022/07/12 00:12:44;;;;;;;;;;;17.50;99.90;;;;;;5031860;28;20206;-72
2022/07/12 00:15:12;;;;;;;;;;;17.50;99.90;;;;;;5034899;28;20211;-72
2022/07/12 00:17:40;;;;;;;;;;;17.50;99.90;;;;;;5034645;28;20202;-70
2022/07/12 00:20:08;;;;;;;;;;;17.40;99.90;;;;;;5034898;28;20214;-70
2022/07/12 00:22:38;;;;;;;;;;;17.50;99.90;;;;;;5034366;28;20206;-70
2022/07/12 00:25:06;;;;;;;;;;;17.50;99.90;;;;;;5034671;28;20202;-70
2022/07/12 00:27:34;;;;;;;;;;;17.50;99.90;;;;;;5033262;28;20206;-70
2022/07/12 00:30:02;;;;;;;;;;;17.50;99.90;;;;;;5034396;28;20394;-71
2022/07/12 00:32:30;;;;;;;;;;;17.50;99.90;;;;;;5034308;28;20221;-68
2022/07/12 00:34:57;;;;;;;;;;;17.60;99.90;;;;;;5034157;28;20202;-70
2022/07/12 00:37:26;;;;;;;;;;;17.50;99.90;;;;;;5034120;28;20210;-70
2022/07/12 00:39:55;;;;;;;;;;;17.50;99.90;;;;;;5016716;28;20690;-71
2022/07/12 00:42:23;;;;;;;;;;;17.50;99.90;;;;;;5034175;28;20210;-70
2022/07/12 00:44:51;;;;;;;;;;;17.50;99.90;;;;;;5034273;28;20203;-71
2022/07/12 00:47:27;;;;;;;;;;;17.40;99.90;;;;;;5034163;28;20210;-70
2022/07/12 00:49:56;;;;;;;;;;;17.40;99.90;;;;;;5034379;28;20199;-69
2022/07/12 00:52:24;;;;;;;;;;;17.40;99.90;;;;;;5032515;28;20203;-69
2022/07/12 00:54:52;;;;;;;;;;;17.40;99.90;;;;;;5034088;28;20207;-69
2022/07/12 00:57:22;;;;;;;;;;;17.30;99.90;;;;;;5015967;28;20210;-72
2022/07/12 00:59:49;;;;;;;;;;;17.20;99.90;;;;;;5034148;28;20207;-72
2022/07/12 01:02:17;;;;;;;;;;;17.20;99.90;;;;;;5033773;28;20202;-71
2022/07/12 01:04:46;;;;;;;;;;;17.20;99.90;;;;;;5033660;28;20195;-72
2022/07/12 01:07:15;;;;;;;;;;;17.20;99.90;;;;;;5033382;28;20225;-72
2022/07/12 01:09:42;;;;;;;;;;;17.20;99.90;;;;;;5033872;28;20202;-72
2022/07/12 01:12:10;;;;;;;;;;;17.20;99.90;;;;;;5033133;28;20199;-71
2022/07/12 01:14:40;;;;;;;;;;;17.10;99.90;;;;;;5033533;28;20239;-71
2022/07/12 01:17:09;;;;;;;;;;;17.10;99.90;;;;;;5032016;28;20202;-71
2022/07/12 01:19:38;;;;;;;;;;;17.10;99.90;;;;;;5033538;28;20210;-71
2022/07/12 01:22:07;;;;;;;;;;;17.10;99.90;;;;;;5033285;28;20201;-70
2022/07/12 01:24:36;;;;;;;;;;;17.00;99.90;;;;;;5032948;28;20190;-71
2022/07/12 01:27:05;;;;;;;;;;;17.00;99.90;;;;;;5033420;28;20206;-70
2022/07/12 01:29:33;;;;;;;;;;;17.00;99.90;;;;;;5033519;28;20278;-71
2022/07/12 01:32:24;;;;;;;;;;;17.00;99.90;;;;;;5033182;28;20202;-71
2022/07/12 01:34:50;;;;;;;;;;;17.00;99.90;;;;;;5031258;28;20279;-71
2022/07/12 01:37:18;;;;;;;;;;;16.90;99.90;;;;;;5033104;28;20256;-71
2022/07/12 01:39:48;;;;;;;;;;;16.70;99.90;;;;;;5032866;28;20269;-71
2022/07/12 01:42:16;;;;;;;;;;;16.80;99.90;;;;;;5033090;28;20206;-71
2022/07/12 01:44:44;;;;;;;;;;;16.90;99.90;;;;;;5033159;28;20206;-71
2022/07/12 01:47:12;;;;;;;;;;;17.00;99.90;;;;;;5032868;28;21380;-71
2022/07/12 01:49:40;;;;;;;;;;;17.00;99.90;;;;;;5033160;28;20209;-71
2022/07/12 01:52:08;;;;;;;;;;;17.00;99.90;;;;;;5032842;28;20206;-71
2022/07/12 01:54:36;;;;;;;;;;;17.10;99.90;;;;;;5032696;28;20581;-71
2022/07/12 01:57:05;;;;;;;;;;;17.00;99.90;;;;;;5027879;28;20264;-71
2022/07/12 01:59:33;;;;;;;;;;;17.00;99.90;;;;;;5032540;28;20206;-70
2022/07/12 02:02:01;;;;;;;;;;;17.00;99.90;;;;;;5032591;28;20199;-71
2022/07/12 02:04:29;;;;;;;;;;;17.00;99.90;;;;;;5032657;28;20237;-71
2022/07/12 02:06:57;;;;;;;;;;;16.90;99.90;;;;;;5032793;28;20203;-71
2022/07/12 02:09:25;;;;;;;;;;;16.90;99.90;;;;;;5032184;28;20198;-71
2022/07/12 02:11:53;;;;;;;;;;;16.80;99.90;;;;;;5032398;28;20199;-71
2022/07/12 02:14:22;;;;;;;;;;;16.70;99.90;;;;;;5032318;28;20276;-70
2022/07/12 02:16:50;;;;;;;;;;;16.60;99.90;;;;;;5032726;28;20195;-71
2022/07/12 02:19:18;;;;;;;;;;;16.60;99.90;;;;;;5032665;28;20218;-71
2022/07/12 02:21:46;;;;;;;;;;;16.60;99.90;;;;;;5032439;28;20195;-70
2022/07/12 02:24:14;;;;;;;;;;;16.50;99.90;;;;;;5031978;28;20257;-70
2022/07/12 02:26:43;;;;;;;;;;;16.60;99.90;;;;;;5032424;28;20221;-70
2022/07/12 02:29:11;;;;;;;;;;;16.60;99.90;;;;;;5032320;28;20672;-69
2022/07/12 02:31:41;;;;;;;;;;;16.50;99.90;;;;;;5032218;28;20198;-70
2022/07/12 02:34:09;;;;;;;;;;;16.50;99.90;;;;;;5031781;28;20675;-70
2022/07/12 02:36:36;;;;;;;;;;;16.50;99.90;;;;;;5031376;28;20230;-71
2022/07/12 02:39:04;;;;;;;;;;;16.60;99.90;;;;;;5031825;28;20260;-70
2022/07/12 02:41:33;;;;;;;;;;;16.50;99.90;;;;;;5032156;28;20559;-68
2022/07/12 02:44:01;;;;;;;;;;;16.50;99.90;;;;;;5031963;28;20203;-71
2022/07/12 02:46:29;;;;;;;;;;;16.50;99.90;;;;;;5032042;28;20214;-71
2022/07/12 02:48:59;;;;;;;;;;;16.40;99.90;;;;;;5015422;28;20217;-69
2022/07/12 02:51:26;;;;;;;;;;;16.40;99.90;;;;;;5031915;28;20202;-70
2022/07/12 02:53:54;;;;;;;;;;;16.40;99.90;;;;;;5031648;28;20233;-70
2022/07/12 02:56:22;;;;;;;;;;;16.30;99.90;;;;;;5031918;28;20237;-70
2022/07/12 02:58:50;;;;;;;;;;;16.30;99.90;;;;;;5068347;23;20206;-64
2022/07/12 03:01:17;;;;;;;;;;;16.40;99.90;;;;;;5071609;28;20201;-64
2022/07/12 03:03:45;;;;;;;;;;;16.40;99.90;;;;;;5066569;28;20239;-64
2022/07/12 03:06:15;;;;;;;;;;;16.40;99.90;;;;;;5066638;28;20202;-64
2022/07/12 03:08:43;;;;;;;;;;;16.40;99.90;;;;;;5064793;28;20615;-65
2022/07/12 03:11:10;;;;;;;;;;;16.40;99.90;;;;;;5071876;28;20267;-65
2022/07/12 03:13:38;;;;;;;;;;;16.40;99.90;;;;;;5071276;28;20709;-65
2022/07/12 03:16:07;;;;;;;;;;;16.40;99.90;;;;;;5071661;28;20201;-65
2022/07/12 03:18:35;;;;;;;;;;;16.40;99.90;;;;;;5071398;28;20642;-64
2022/07/12 03:21:02;;;;;;;;;;;16.40;99.90;;;;;;5071263;28;20251;-64
2022/07/12 03:23:31;;;;;;;;;;;16.30;99.90;;;;;;5071191;28;20355;-65
2022/07/12 03:25:59;;;;;;;;;;;16.30;99.90;;;;;;5071546;28;20622;-64
2022/07/12 03:28:27;;;;;;;;;;;16.30;99.90;;;;;;5071671;28;20206;-64
2022/07/12 03:30:55;;;;;;;;;;;16.30;99.90;;;;;;5071489;28;20772;-65
2022/07/12 03:33:23;;;;;;;;;;;16.20;99.90;;;;;;5071011;28;20690;-64
2022/07/12 03:35:57;;;;;;;;;;;16.20;99.90;;;;;;5071220;28;20581;-65
2022/07/12 03:38:25;;;;;;;;;;;16.10;99.90;;;;;;5070951;28;20220;-64
2022/07/12 03:40:54;;;;;;;;;;;16.10;99.90;;;;;;5071717;28;20202;-65
2022/07/12 03:43:22;;;;;;;;;;;16.10;99.90;;;;;;5071136;28;20222;-64
2022/07/12 03:45:50;;;;;;;;;;;16.10;99.90;;;;;;5071527;28;20900;-64
2022/07/12 03:48:18;;;;;;;;;;;16.00;99.90;;;;;;5073710;28;20201;-64
2022/07/12 03:50:46;;;;;;;;;;;16.00;99.90;;;;;;5075405;28;20197;-64
2022/07/12 03:53:14;;;;;;;;;;;16.00;99.90;;;;;;5074667;28;20244;-64
2022/07/12 03:55:42;;;;;;;;;;;16.00;99.90;;;;;;5074759;28;20206;-64
2022/07/12 03:58:11;;;;;;;;;;;16.00;99.90;;;;;;5075921;28;20202;-64
2022/07/12 04:00:40;;;;;;;;;;;16.00;99.90;;;;;;5069140;28;20202;-64
2022/07/12 04:03:07;;;;;;;;;;;15.90;99.90;;;;;;5074822;28;20255;-64
2022/07/12 04:05:35;;;;;;;;;;;16.00;99.90;;;;;;5074853;28;20205;-64
2022/07/12 04:08:03;;;;;;;;;;;16.00;99.90;;;;;;5074798;28;20576;-64
2022/07/12 04:10:31;;;;;;;;;;;16.00;99.90;;;;;;5074690;28;20744;-64
2022/07/12 04:12:58;;;;;;;;;;;16.00;99.90;;;;;;5073842;28;20198;-64
2022/07/12 04:15:27;;;;;;;;;;;16.00;99.90;;;;;;5074995;28;20693;-65
2022/07/12 04:17:55;;;;;;;;;;;16.10;99.90;;;;;;5074811;28;20194;-64
2022/07/12 04:20:23;;;;;;;;;;;16.10;99.90;;;;;;5074552;28;20209;-64
2022/07/12 04:22:51;;;;;;;;;;;16.20;99.90;;;;;;5074446;28;20190;-64
2022/07/12 04:25:20;;;;;;;;;;;16.30;99.90;;;;;;5074499;28;20220;-64
2022/07/12 04:27:47;;;;;;;;;;;16.20;99.90;;;;;;5074065;28;20572;-65
2022/07/12 04:30:16;;;;;;;;;;;16.30;99.90;;;;;;5074949;28;20697;-64
2022/07/12 04:32:45;;;;;;;;;;;16.30;99.90;;;;;;5073991;28;20206;-65
2022/07/12 04:35:12;;;;;;;;;;;16.30;99.90;;;;;;5056832;28;20988;-65
2022/07/12 04:37:41;;;;;;;;;;;16.40;99.90;;;;;;5059155;28;20251;-65
2022/07/12 04:40:09;;;;;;;;;;;16.40;99.90;;;;;;5058144;28;20237;-66
2022/07/12 04:42:37;;;;;;;;;;;16.30;99.90;;;;;;5057951;28;20583;-65
2022/07/12 04:45:05;;;;;;;;;;;16.30;99.90;;;;;;5056420;28;20206;-66
2022/07/12 04:47:35;;;;;;;;;;;16.30;99.90;;;;;;5058401;28;20217;-65
2022/07/12 04:50:06;;;;;;;;;;;16.40;99.90;;;;;;5058287;28;20387;-65
2022/07/12 04:52:34;;;;;;;;;;;16.40;99.90;;;;;;5058559;28;20202;-66
2022/07/12 04:55:01;;;;;;;;;;;16.50;99.90;;;;;;5057651;28;20209;-65
2022/07/12 04:57:29;;;;;;;;;;;16.50;99.90;;;;;;5056334;28;21122;-65
2022/07/12 04:59:57;;;;;;;;;;;16.40;99.90;;;;;;5054764;28;20253;-65
2022/07/12 05:02:25;;;;;;;;;;;16.40;99.90;;;;;;5056751;28;20205;-65
2022/07/12 05:04:53;;;;;;;;;;;16.40;99.90;;;;;;5056902;28;20716;-65
2022/07/12 05:07:22;;;;;;;;;;;16.40;99.90;;;;;;5055413;28;20267;-66
2022/07/12 05:09:51;;;;;;;;;;;16.40;99.90;;;;;;5056481;28;20220;-65
2022/07/12 05:12:18;;;;;;;;;;;16.50;99.90;;;;;;5053454;28;20291;-65
2022/07/12 05:14:46;;;;;;;;;;;16.60;99.90;;;;;;5055796;28;20197;-65
2022/07/12 05:17:14;;;;;;;;;;;16.60;99.90;;;;;;5054657;28;20205;-65
2022/07/12 05:19:42;;;;;;;;;;;16.70;99.90;;;;;;5056055;28;20213;-65
2022/07/12 05:22:10;;;;;;;;;;;16.70;99.90;;;;;;5055880;28;20206;-65
2022/07/12 05:24:39;;;;;;;;;;;16.90;99.90;;;;;;5053472;28;20216;-65
2022/07/12 05:27:07;;;;;;;;;;;16.90;99.90;;;;;;5053326;28;20209;-65
2022/07/12 05:29:35;;;;;;;;;;;17.00;99.90;;;;;;5056033;28;20583;-65
2022/07/12 05:32:03;;;;;;;;;;;17.10;99.90;;;;;;5056343;28;20194;-64
2022/07/12 05:34:37;;;;;;;;;;;17.30;99.90;;;;;;5056123;28;20197;-65
2022/07/12 05:37:05;;;;;;;;;;;17.40;99.90;;;;;;5055516;28;20635;-64
2022/07/12 05:39:33;;;;;;;;;;;17.50;99.90;;;;;;5056914;28;20079;-65
2022/07/12 05:42:02;;;;;;;;;;;17.70;99.90;;;;;;5057195;28;20239;-65
2022/07/12 05:44:30;;;;;;;;;;;17.80;99.90;;;;;;5056217;28;20603;-65
2022/07/12 05:46:58;;;;;;;;;;;18.00;99.90;;;;;;5056046;28;20278;-65
2022/07/12 05:49:26;;;;;;;;;;;18.10;99.90;;;;;;5055923;28;20206;-65
2022/07/12 05:54:35;;;;;;;;;;;18.30;99.90;;;;;;5012800;28;20201;-65
2022/07/12 05:57:05;;;;;;;;;;;18.50;99.90;;;;;;5055620;28;20202;-65
2022/07/12 05:59:35;;;;;;;;;;;18.60;99.90;;;;;;5061700;28;20217;-64
2022/07/12 06:02:03;;;;;;;;;;;18.70;99.90;;;;;;5071058;28;20222;-65
2022/07/12 06:04:31;;;;;;;;;;;18.90;99.90;;;;;;5070782;28;20564;-65
2022/07/12 06:06:59;;;;;;;;;;;19.10;99.90;;;;;;5068253;28;20206;-64
2022/07/12 06:09:27;;;;;;;;;;;19.20;99.90;;;;;;5069815;28;20197;-64
2022/07/12 06:11:55;;;;;;;;;;;19.30;99.90;;;;;;5069436;28;20189;-65
2022/07/12 06:14:24;;;;;;;;;;;19.40;99.90;;;;;;5071479;28;20316;-65
2022/07/12 06:16:52;;;;;;;;;;;19.50;99.90;;;;;;5070746;28;20201;-64
2022/07/12 06:19:20;;;;;;;;;;;19.60;99.90;;;;;;5071207;28;20264;-64
2022/07/12 06:21:48;;;;;;;;;;;19.70;99.90;;;;;;5070823;28;20202;-65
2022/07/12 06:24:16;;;;;;;;;;;19.80;99.90;;;;;;5068371;28;20284;-65
2022/07/12 06:26:43;;;;;;;;;;;19.80;99.90;;;;;;5071825;28;20659;-65
2022/07/12 06:29:11;;;;;;;;;;;19.90;99.90;;;;;;5054307;28;20202;-66
2022/07/12 06:31:40;;;;;;;;;;;19.90;99.90;;;;;;5070741;28;20599;-66
2022/07/12 06:34:08;;;;;;;;;;;20.00;99.90;;;;;;5070321;28;20599;-66
2022/07/12 06:36:36;;;;;;;;;;;20.20;99.90;;;;;;5067216;28;20236;-66
2022/07/12 06:39:04;;;;;;;;;;;20.30;99.90;;;;;;5072021;28;20606;-66
2022/07/12 06:41:32;;;;;;;;;;;20.30;99.90;;;;;;5071790;28;20251;-66
2022/07/12 06:43:59;;;;;;;;;;;20.40;99.90;;;;;;5071536;28;20622;-66
2022/07/12 06:46:27;;;;;;;;;;;20.50;99.90;;;;;;5071831;28;20210;-66
2022/07/12 06:48:56;;;;;;;;;;;20.60;99.90;;;;;;5072111;28;20198;-66
2022/07/12 06:51:24;;;;;;;;;;;20.60;99.90;;;;;;5071727;28;20202;-66
2022/07/12 06:53:52;;;;;;;;;;;20.60;99.90;;;;;;5071447;28;20563;-66
2022/07/12 06:56:20;;;;;;;;;;;20.70;99.90;;;;;;5071737;28;20263;-66
2022/07/12 06:58:47;;;;;;;;;;;20.80;99.90;;;;;;5071427;28;20244;-66
2022/07/12 07:01:16;;;;;;;;;;;21.00;99.90;;;;;;5071729;28;20658;-66
2022/07/12 07:03:43;;;;;;;;;;;21.10;99.90;;;;;;5071238;28;20198;-66
2022/07/12 07:06:12;;;;;;;;;;;21.20;99.90;;;;;;5071492;28;20198;-66
2022/07/12 07:08:40;;;;;;;;;;;21.20;99.90;;;;;;5071712;28;20259;-66
2022/07/12 07:11:09;;;;;;;;;;;21.30;99.90;;;;;;5071517;28;20198;-66
2022/07/12 07:13:36;;;;;;;;;;;21.40;99.90;;;;;;5071136;28;20701;-66
2022/07/12 07:16:11;;;;;;;;;;;21.50;99.90;;;;;;5071678;28;20675;-66
2022/07/12 07:18:39;;;;;;;;;;;21.60;99.90;;;;;;5071651;28;20221;-66
2022/07/12 07:21:07;;;;;;;;;;;21.70;99.90;;;;;;5071797;28;20594;-66
2022/07/12 07:23:36;;;;;;;;;;;21.50;99.90;;;;;;5070618;28;20209;-66
2022/07/12 07:26:04;;;;;;;;;;;21.50;99.90;;;;;;5071244;28;20198;-66
2022/07/12 07:28:32;;;;;;;;;;;21.70;99.90;;;;;;5071193;28;20198;-66
2022/07/12 07:31:14;;;;;;;;;;;22.00;99.90;;;;;;5071538;28;20258;-66
2022/07/12 07:33:42;;;;;;;;;;;22.00;99.90;;;;;;5071026;28;20197;-66
2022/07/12 07:36:10;;;;;;;;;;;22.10;99.90;;;;;;5071121;28;20270;-66
2022/07/12 07:38:39;;;;;;;;;;;22.20;99.90;;;;;;5071258;28;20263;-67
2022/07/12 07:41:07;;;;;;;;;;;22.30;99.90;;;;;;5071207;28;20197;-66
2022/07/12 07:43:35;;;;;;;;;;;22.50;99.90;;;;;;5071036;28;20263;-66
2022/07/12 07:46:02;;;;;;;;;;;22.70;99.90;;;;;;5071161;28;20209;-66
2022/07/12 07:48:30;;;;;;;;;;;22.90;99.90;;;;;;5071250;28;20205;-66
2022/07/12 07:50:58;;;;;;;;;;;23.00;99.90;;;;;;5071427;28;20201;-66
2022/07/12 07:53:26;;;;;;;;;;;22.90;99.90;;;;;;5070942;28;20621;-66
2022/07/12 07:55:55;;;;;;;;;;;22.70;99.90;;;;;;5071081;28;20562;-66
2022/07/12 07:58:23;;;;;;;;;;;22.50;99.90;;;;;;5070677;28;20221;-66
2022/07/12 08:00:51;;;;;;;;;;;22.30;99.90;;;;;;5070732;28;20244;-66
2022/07/12 08:03:19;;;;;;;;;;;22.20;99.90;;;;;;5071240;28;20201;-66
2022/07/12 08:05:47;;;;;;;;;;;22.10;99.90;;;;;;5071108;28;20206;-66
2022/07/12 08:08:15;;;;;;;;;;;22.20;99.90;;;;;;5070966;28;20247;-66
2022/07/12 08:10:42;;;;;;;;;;;22.30;99.90;;;;;;5071179;28;20568;-66
2022/07/12 08:13:12;;;;;;;;;;;22.50;99.90;;;;;;5071264;28;20202;-66
2022/07/12 08:15:39;;;;;;;;;;;22.40;99.90;;;;;;5070366;28;20205;-66
2022/07/12 08:18:07;;;;;;;;;;;22.30;99.90;;;;;;5070520;28;20289;-66
2022/07/12 08:20:35;;;;;;;;;;;22.10;99.90;;;;;;5070867;28;20212;-66
2022/07/12 08:23:13;;;;;;;;;;;22.00;99.90;;;;;;5070738;28;20285;-66
2022/07/12 08:25:41;;;;;;;;;;;21.90;99.90;;;;;;5070628;28;20190;-66
2022/07/12 08:28:09;;;;;;;;;;;21.90;99.90;;;;;;5070581;28;20198;-66
2022/07/12 08:30:38;;;;;;;;;;;21.90;99.90;;;;;;5070821;28;20201;-66
2022/07/12 08:33:13;;;;;;;;;;;22.00;99.90;;;;;;5070753;28;20206;-66
2022/07/12 08:35:41;;;;;;;;;;;22.10;99.90;;;;;;5072706;28;20202;-67
2022/07/12 08:38:09;;;;;;;;;;;22.20;99.90;;;;;;5073889;28;20194;-66
2022/07/12 08:40:37;;;;;;;;;;;22.20;99.90;;;;;;5074288;28;20217;-66
2022/07/12 08:43:05;;;;;;;;;;;22.30;99.90;;;;;;5074259;28;20198;-65
2022/07/12 08:45:33;;;;;;;;;;;22.30;99.90;;;;;;5074104;28;20304;-66
2022/07/12 08:48:02;;;;;;;;;;;22.20;99.90;;;;;;5074165;28;20201;-66
2022/07/12 08:50:32;;;;;;;;;;;22.30;99.90;;;;;;5073481;28;20405;-66
2022/07/12 08:53:00;;;;;;;;;;;22.40;99.90;;;;;;5073591;28;20224;-66
2022/07/12 08:55:29;;;;;;;;;;;22.60;99.90;;;;;;5073799;28;20206;-66
2022/07/12 08:57:58;;;;;;;;;;;22.90;99.90;;;;;;5097116;22;20225;-65
2022/07/12 09:00:26;;;;;;;;;;;23.30;99.90;;;;;;5037955;28;20203;-65
2022/07/12 09:02:55;;;;;;;;;;;23.70;99.90;;;;;;5050247;28;20260;-65
2022/07/12 09:05:25;;;;;;;;;;;24.00;99.90;;;;;;5027047;28;20278;-65
2022/07/12 09:08:01;;;;;;;;;;;24.40;99.90;;;;;;5042640;28;20202;-65
2022/07/12 09:10:29;;;;;;;;;;;24.80;99.90;;;;;;5033768;28;20202;-65
2022/07/12 09:12:57;;;;;;;;;;;25.10;99.90;;;;;;5033123;28;20207;-65
2022/07/12 09:15:26;;;;;;;;;;;25.10;99.90;;;;;;5033499;28;20199;-64
2022/07/12 09:17:58;;;;;;;;;;;25.10;99.90;;;;;;5033890;28;20234;-65
2022/07/12 09:20:28;;;;;;;;;;;25.10;99.90;;;;;;5027502;28;20688;-65
2022/07/12 09:22:57;;;;;;;;;;;25.30;99.90;;;;;;5033323;28;20203;-65
2022/07/12 09:25:25;;;;;;;;;;;25.60;99.90;;;;;;5033519;28;20584;-65
2022/07/12 09:27:54;;;;;;;;;;;25.90;99.90;;;;;;5033480;28;20252;-65
2022/07/12 09:30:23;;;;;;;;;;;26.40;99.90;;;;;;5033459;28;20199;-64
2022/07/12 09:38:29;;;;;;;;;;;27.10;99.90;;;;;;5035315;28;20765;-65
2022/07/12 09:40:57;;;;;;;;;;;27.50;99.90;;;;;;5033226;28;20210;-65
2022/07/12 09:43:25;;;;;;;;;;;27.50;99.90;;;;;;5033021;28;20211;-65
2022/07/12 09:45:54;;;;;;;;;;;27.80;99.90;;;;;;5033184;28;20206;-65
2022/07/12 09:48:22;;;;;;;;;;;27.40;99.90;;;;;;5033082;28;20299;-65
2022/07/12 09:50:51;;;;;;;;;;;27.40;99.90;;;;;;5029257;28;20639;-63
2022/07/12 09:53:21;;;;;;;;;;;27.80;99.90;;;;;;5032888;28;20203;-63
2022/07/12 09:55:52;;;;;;;;;;;28.20;99.90;;;;;;5033087;28;20199;-63
2022/07/12 09:58:27;;;;;;;;;;;28.00;99.20;;;;;;5032363;28;20222;-63
2022/07/12 10:00:56;;;;;;;;;;;27.90;99.80;;;;;;5032949;28;20207;-63
2022/07/12 10:03:24;;;;;;;;;;;27.90;98.90;;;;;;5032601;28;20636;-66
2022/07/12 10:05:54;;;;;;;;;;;28.00;98.80;;;;;;5028814;28;20199;-66
2022/07/12 10:08:22;;;;;;;;;;;28.30;99.00;;;;;;5032634;28;20249;-65
2022/07/12 10:10:50;;;;;;;;;;;28.60;98.50;;;;;;5032215;28;20575;-65
2022/07/12 10:13:19;;;;;;;;;;;29.00;98.40;;;;;;5029286;28;20248;-65
2022/07/12 10:15:48;;;;;;;;;;;29.10;97.60;;;;;;5031928;28;20195;-65
2022/07/12 10:18:16;;;;;;;;;;;29.20;98.60;;;;;;5032699;28;20207;-65
2022/07/12 10:20:45;;;;;;;;;;;29.00;97.30;;;;;;5032361;28;20285;-65
2022/07/12 10:23:30;;;;;;;;;;;29.10;97.40;;;;;;5032159;28;20206;-65
2022/07/12 10:25:58;;;;;;;;;;;29.10;97.50;;;;;;5032423;28;20268;-66
2022/07/12 10:28:54;;;;;;;;;;;29.30;96.60;;;;;;5031924;28;20753;-66
2022/07/12 10:31:24;;;;;;;;;;;29.70;97.30;;;;;;5032304;28;20195;-65
2022/07/12 10:34:00;;;;;;;;;;;30.00;96.30;;;;;;5032030;28;20616;-65
2022/07/12 10:36:28;;;;;;;;;;;29.50;96.10;;;;;;5031070;28;20203;-65
2022/07/12 10:42:12;;;;;;;;;;;29.60;95.30;;;;;;5121231;27;20497;-64
2022/07/12 10:44:47;;;;;;;;;;;29.90;96.10;;;;;;5118669;28;20223;-64
2022/07/12 10:47:17;;;;;;;;;;;30.00;96.40;;;;;;5129947;28;20249;-64
2022/07/12 10:49:47;;;;;;;;;;;30.10;96.20;;;;;;5129387;28;20215;-64
2022/07/12 10:52:17;;;;;;;;;;;29.80;95.10;;;;;;5128871;27;20201;-64
2022/07/12 10:54:50;;;;;;;;;;;30.20;95.30;;;;;;5129153;27;20229;-65
2022/07/12 10:57:38;;;;;;;;;;;30.50;94.60;;;;;;5129343;27;20209;-69
2022/07/12 11:00:07;;;;;;;;;;;30.80;94.50;;;;;;5126252;27;20250;-65
2022/07/12 11:02:35;;;;;;;;;;;30.50;94.70;;;;;;5111335;27;20208;-65
2022/07/12 11:05:03;;;;;;;;;;;30.30;94.40;;;;;;5114368;28;20196;-65
2022/07/12 11:07:31;;;;;;;;;;;30.40;94.30;;;;;;5116710;27;20197;-65
2022/07/12 11:09:59;;;;;;;;;;;30.60;93.80;;;;;;5109429;28;20246;-64
2022/07/12 11:12:29;;;;;;;;;;;31.00;94.40;;;;;;5109239;28;20204;-64
2022/07/12 11:14:59;;;;;;;;;;;31.40;94.10;;;;;;5115376;28;20270;-64
2022/07/12 11:17:27;;;;;;;;;;;31.10;93.40;;;;;;5109275;28;20667;-65
2022/07/12 11:20:05;;;;;;;;;;;31.40;93.40;;;;;;5109002;28;20649;-65
2022/07/12 11:22:33;;;;;;;;;;;31.70;93.60;;;;;;5109260;28;20638;-65
2022/07/12 11:25:01;;;;;;;;;;;31.80;92.70;;;;;;5109092;28;20438;-65
2022/07/12 11:27:30;;;;;;;;;;;32.00;92.60;;;;;;5109406;28;20209;-64
2022/07/12 11:29:58;;;;;;;;;;;32.20;92.20;;;;;;5122586;28;20201;-64
2022/07/12 11:32:36;;;;;;;;;;;32.30;91.80;;;;;;5108749;28;20215;-65
2022/07/12 11:35:05;;;;;;;;;;;32.10;92.10;;;;;;5112881;28;20193;-65
2022/07/12 11:37:32;;;;;;;;;;;32.10;91.60;;;;;;5115253;28;20197;-65
2022/07/12 11:40:00;;;;;;;;;;;32.50;91.80;;;;;;5113297;28;20213;-64
2022/07/12 11:42:29;;;;;;;;;;;32.80;91.60;;;;;;5108661;28;20664;-65
2022/07/12 11:44:57;;;;;;;;;;;33.10;90.40;;;;;;5112948;28;20226;-64
2022/07/12 11:47:25;;;;;;;;;;;33.00;90.70;;;;;;5108713;28;20574;-65
2022/07/12 11:49:54;;;;;;;;;;;33.10;90.50;;;;;;5108977;28;20676;-65
2022/07/12 11:52:22;;;;;;;;;;;33.20;89.30;;;;;;5099602;28;20212;-65
2022/07/12 11:54:51;;;;;;;;;;;33.40;89.30;;;;;;5095012;28;20184;-66
2022/07/12 11:57:20;;;;;;;;;;;33.40;89.70;;;;;;5094940;28;20652;-65
2022/07/12 11:59:49;;;;;;;;;;;33.40;90.20;;;;;;5097686;28;20251;-65
2022/07/12 12:02:17;;;;;;;;;;;33.20;89.50;;;;;;5094801;28;20193;-65
2022/07/12 12:04:47;;;;;;;;;;;33.30;89.30;;;;;;5097542;28;20214;-65
2022/07/12 12:07:16;;;;;;;;;;;33.50;88.80;;;;;;5105826;27;20225;-65
2022/07/12 12:09:58;;;;;;;;;;;33.60;87.50;;;;;;5094643;28;20201;-65
2022/07/12 12:12:26;;;;;;;;;;;33.70;87.20;;;;;;5094392;28;20173;-65
2022/07/12 12:14:55;;;;;;;;;;;34.00;88.00;;;;;;5111838;28;20236;-65
2022/07/12 12:17:23;;;;;;;;;;;34.30;87.20;;;;;;5114158;28;20409;-65
2022/07/12 12:19:51;;;;;;;;;;;34.30;84.80;;;;;;5114078;28;20067;-65
2022/07/12 12:22:28;;;;;;;;;;;34.10;84.80;;;;;;5113839;28;20240;-64
2022/07/12 12:24:59;;;;;;;;;;;33.90;84.70;;;;;;5113863;28;20209;-65
2022/07/12 12:27:27;;;;;;;;;;;33.50;84.80;;;;;;5112797;28;20203;-64
2022/07/12 12:30:17;;;;;;;;;;;33.60;84.60;;;;;;5094363;28;20620;-65
2022/07/12 12:32:46;;;;;;;;;;;33.80;84.60;;;;;;5094562;28;20183;-65
2022/07/12 12:35:14;;;;;;;;;;;34.30;84.30;;;;;;5098682;28;20176;-65
2022/07/12 12:37:42;;;;;;;;;;;34.50;82.80;;;;;;5102245;28;20199;-65
2022/07/12 12:40:11;;;;;;;;;;;35.10;82.00;;;;;;5098246;28;20218;-65
2022/07/12 12:42:38;;;;;;;;;;;35.10;81.90;;;;;;5095994;28;20208;-65
2022/07/12 12:45:07;;;;;;;;;;;35.10;80.90;;;;;;5113380;28;20186;-66
2022/07/12 12:47:49;;;;;;;;;;;35.10;80.40;;;;;;5110398;28;20239;-65
2022/07/12 12:50:35;;;;;;;;;;;35.30;79.90;;;;;;5113638;27;20229;-65
2022/07/12 12:53:07;;;;;;;;;;;35.30;79.90;;;;;;5093795;28;20647;-65
2022/07/12 12:55:34;;;;;;;;;;;35.00;79.10;;;;;;5107040;28;20661;-65
2022/07/12 12:58:07;;;;;;;;;;;34.90;80.50;;;;;;5113534;28;20302;-65
2022/07/12 13:00:37;;;;;;;;;;;34.80;78.40;;;;;;5113438;28;20183;-65
2022/07/12 13:03:05;;;;;;;;;;;35.10;78.40;;;;;;5110805;28;20194;-65
2022/07/12 13:05:35;;;;;;;;;;;35.30;78.50;;;;;;5111633;28;20647;-66
2022/07/12 13:08:04;;;;;;;;;;;35.60;77.80;;;;;;5102727;28;20254;-65
2022/07/12 13:10:32;;;;;;;;;;;35.90;76.80;;;;;;5109899;28;20236;-65
2022/07/12 13:13:00;;;;;;;;;;;36.20;76.40;;;;;;5112950;28;20182;-65
2022/07/12 13:15:28;;;;;;;;;;;36.50;77.10;;;;;;5112761;28;20176;-65
2022/07/12 13:17:56;;;;;;;;;;;36.40;76.00;;;;;;5112698;28;20202;-66
2022/07/12 13:20:25;;;;;;;;;;;35.90;74.90;;;;;;5113002;28;20598;-65
2022/07/12 13:22:55;;;;;;;;;;;36.20;75.50;;;;;;5109162;28;20618;-65
2022/07/12 13:25:23;;;;;;;;;;;36.50;74.10;;;;;;5113048;28;20288;-66
2022/07/12 13:27:51;;;;;;;;;;;36.20;74.80;;;;;;5112774;28;20549;-65
2022/07/12 13:30:19;;;;;;;;;;;36.60;73.80;;;;;;5112668;28;21144;-65
2022/07/12 13:32:47;;;;;;;;;;;36.70;72.70;;;;;;5112667;28;20236;-65
2022/07/12 13:35:17;;;;;;;;;;;37.00;72.30;;;;;;5110736;28;20186;-65
2022/07/12 13:37:44;;;;;;;;;;;36.70;74.10;;;;;;5096326;28;20183;-65
2022/07/12 13:40:17;;;;;;;;;;;36.70;71.80;;;;;;5096809;28;20581;-65
2022/07/12 13:42:46;;;;;;;;;;;36.30;71.10;;;;;;5092753;28;20232;-65
2022/07/12 13:45:15;;;;;;;;;;;36.20;73.60;;;;;;5092995;28;20667;-65
2022/07/12 13:47:43;;;;;;;;;;;36.10;72.70;;;;;;5093179;28;20700;-65
2022/07/12 13:50:12;;;;;;;;;;;36.20;72.50;;;;;;5092712;28;20204;-65
2022/07/12 13:52:40;;;;;;;;;;;36.60;72.90;;;;;;5093776;28;20543;-65
2022/07/12 13:55:09;;;;;;;;;;;36.60;70.80;;;;;;5092775;28;20220;-65
2022/07/12 13:57:38;;;;;;;;;;;36.20;70.70;;;;;;5092772;28;20210;-65
2022/07/12 14:00:08;;;;;;;;;;;35.70;72.00;;;;;;5092764;28;20485;-65
2022/07/12 14:02:36;;;;;;;;;;;35.70;71.80;;;;;;5092111;28;20207;-65
2022/07/12 14:05:04;;;;;;;;;;;35.70;71.00;;;;;;5094544;28;20269;-65
2022/07/12 14:07:32;;;;;;;;;;;36.10;71.10;;;;;;5101188;28;20180;-65
2022/07/12 14:10:00;;;;;;;;;;;36.50;71.20;;;;;;5095000;28;20256;-65
2022/07/12 14:12:28;;;;;;;;;;;36.70;69.90;;;;;;5092311;28;20200;-65
2022/07/12 14:15:19;;;;;;;;;;;37.00;71.30;;;;;;5092163;28;20252;-64
2022/07/12 14:17:49;;;;;;;;;;;36.30;70.30;;;;;;5091906;28;20194;-65
2022/07/12 14:20:18;;;;;;;;;;;35.90;72.20;;;;;;5092198;28;20571;-65
2022/07/12 14:22:46;;;;;;;;;;;35.90;71.60;;;;;;5091908;28;20581;-65
2022/07/12 14:25:13;;;;;;;;;;;35.80;71.30;;;;;;5096309;28;20640;-65
2022/07/12 14:27:42;;;;;;;;;;;36.00;70.70;;;;;;5092236;28;20597;-65
2022/07/12 14:30:11;;;;;;;;;;;36.50;71.80;;;;;;5092173;28;20241;-65
2022/07/12 14:32:39;;;;;;;;;;;36.80;70.10;;;;;;5091816;28;20646;-65
2022/07/12 14:35:07;;;;;;;;;;;37.00;70.00;;;;;;5097619;28;20198;-64
2022/07/12 14:37:35;;;;;;;;;;;37.10;69.80;;;;;;5100096;28;20612;-65